createdAt,value
2018-03-25T00:00:33.443Z,52.38
2018-03-25T00:03:00.953Z,46.97
2018-03-25T00:05:28.394Z,45.95
2018-03-25T00:07:55.984Z,49.38
2018-03-25T00:10:23.449Z,50.45
2018-03-25T00:12:50.947Z,44.00
2018-03-25T00:15:18.398Z,54.97
2018-03-25T00:17:45.856Z,47.20
2018-03-25T00:20:13.351Z,46.10
2018-03-25T00:22:40.828Z,54.58
2018-03-25T00:25:08.322Z,47.85
2018-03-25T00:27:35.791Z,49.55
2018-03-25T00:30:03.382Z,50.22
2018-03-25T00:32:30.844Z,47.58
2018-03-25T00:34:58.315Z,51.50
2018-03-25T00:37:26.895Z,47.25
2018-03-25T00:39:54.359Z,54.00
2018-03-25T00:42:21.814Z,51.72
2018-03-25T00:44:49.252Z,50.03
2018-03-25T00:47:16.717Z,55.65
2018-03-25T00:49:44.161Z,49.60
2018-03-25T00:52:11.610Z,55.22
2018-03-25T00:54:39.050Z,53.47
2018-03-25T00:57:06.523Z,52.92
2018-03-25T00:59:34.006Z,48.55
2018-03-25T01:02:01.486Z,45.38
2018-03-25T01:04:28.955Z,48.55
2018-03-25T01:06:56.400Z,51.85
2018-03-25T01:09:24.703Z,54.88
2018-03-25T01:11:52.189Z,54.97
2018-03-25T01:14:19.663Z,52.10
2018-03-25T01:16:47.089Z,53.33
2018-03-25T01:19:14.531Z,50.28
2018-03-25T01:21:41.977Z,48.67
2018-03-25T01:24:09.426Z,51.13
2018-03-25T01:26:36.874Z,57.28
2018-03-25T01:29:04.334Z,53.53
2018-03-25T01:31:31.890Z,50.20
2018-03-25T01:33:59.274Z,54.25
2018-03-25T01:36:26.731Z,53.03
2018-03-25T01:38:54.166Z,51.83
2018-03-25T01:41:21.600Z,44.50
2018-03-25T01:43:49.062Z,57.95
2018-03-25T01:46:16.499Z,52.95
2018-03-25T01:48:43.954Z,54.25
2018-03-25T01:51:11.390Z,55.17
2018-03-25T01:53:38.841Z,58.53
2018-03-25T01:56:06.278Z,54.30
2018-03-25T01:58:33.725Z,51.20
2018-03-25T02:01:01.159Z,51.55
2018-03-25T02:03:28.595Z,47.10
2018-03-25T02:05:56.105Z,53.30
2018-03-25T02:08:23.553Z,50.58
2018-03-25T02:10:50.998Z,51.45
2018-03-25T02:13:18.442Z,54.95
2018-03-25T02:15:46.015Z,57.83
2018-03-25T02:18:13.463Z,58.95
2018-03-25T02:20:40.919Z,51.60
2018-03-25T02:23:08.371Z,47.20
2018-03-25T02:25:35.805Z,44.90
2018-03-25T02:28:03.242Z,56.28
2018-03-25T02:30:30.707Z,53.22
2018-03-25T02:32:58.158Z,48.55
2018-03-25T02:35:25.659Z,49.55
2018-03-25T02:37:53.774Z,48.67
2018-03-25T02:40:21.239Z,49.22
2018-03-25T02:42:48.684Z,55.95
2018-03-25T02:45:16.123Z,50.85
2018-03-25T02:47:43.578Z,50.97
2018-03-25T02:50:11.066Z,52.50
2018-03-25T02:52:38.519Z,53.53
2018-03-25T02:55:05.966Z,52.67
2018-03-25T02:57:33.417Z,56.35
2018-03-25T03:00:00.859Z,47.00
2018-03-25T03:02:28.329Z,49.17
2018-03-25T03:04:55.796Z,46.42
2018-03-25T03:07:23.287Z,43.58
2018-03-25T03:09:50.726Z,50.53
2018-03-25T03:12:18.173Z,58.92
2018-03-25T03:14:45.617Z,50.38
2018-03-25T03:17:13.069Z,48.83
2018-03-25T03:19:40.519Z,44.00
2018-03-25T03:22:07.964Z,55.08
2018-03-25T03:24:35.420Z,53.25
2018-03-25T03:27:02.862Z,56.35
2018-03-25T03:29:30.327Z,49.90
2018-03-25T03:31:57.763Z,50.03
2018-03-25T03:34:25.238Z,58.87
2018-03-25T03:36:52.696Z,50.17
2018-03-25T03:39:20.139Z,58.17
2018-03-25T03:41:47.582Z,57.53
2018-03-25T03:44:15.044Z,52.58
2018-03-25T03:46:42.516Z,54.22
2018-03-25T03:49:09.957Z,48.80
2018-03-25T03:51:37.401Z,52.17
2018-03-25T03:54:04.841Z,54.08
2018-03-25T03:56:32.295Z,56.33
2018-03-25T03:58:59.756Z,51.37
2018-03-25T04:01:27.197Z,53.20
2018-03-25T04:03:54.683Z,44.83
2018-03-25T04:06:22.112Z,53.53
2018-03-25T04:08:49.564Z,52.67
2018-03-25T04:11:17.051Z,48.67
2018-03-25T04:13:44.512Z,55.72
2018-03-25T04:16:11.941Z,49.50
2018-03-25T04:18:39.391Z,49.55
2018-03-25T04:21:06.843Z,49.45
2018-03-25T04:23:34.296Z,57.22
2018-03-25T04:26:01.763Z,52.17
2018-03-25T04:28:29.225Z,52.97
2018-03-25T04:30:56.663Z,54.63
2018-03-25T04:33:24.100Z,53.85
2018-03-25T04:35:51.558Z,47.15
2018-03-25T04:38:19.035Z,50.90
2018-03-25T04:40:46.486Z,51.75
2018-03-25T04:43:13.967Z,48.78
2018-03-25T04:45:41.435Z,50.97
2018-03-25T04:48:08.886Z,48.00
2018-03-25T04:50:36.329Z,48.55
2018-03-25T04:53:03.785Z,52.88
2018-03-25T04:55:31.234Z,56.15
2018-03-25T04:57:58.684Z,63.35
2018-03-25T05:00:26.146Z,61.55
2018-03-25T05:02:53.629Z,64.93
2018-03-25T05:05:21.074Z,44.08
2018-03-25T05:07:48.532Z,50.15
2018-03-25T05:10:16.001Z,59.47
2018-03-25T05:12:43.448Z,51.00
2018-03-25T05:15:10.892Z,50.05
2018-03-25T05:17:38.337Z,43.63
2018-03-25T05:20:05.794Z,44.47
2018-03-25T05:22:33.231Z,45.28
2018-03-25T05:25:00.718Z,55.08
2018-03-25T05:27:28.151Z,49.00
2018-03-25T05:29:55.894Z,45.20
2018-03-25T05:32:23.397Z,52.30
2018-03-25T05:34:50.847Z,51.40
2018-03-25T05:37:18.306Z,43.05
2018-03-25T05:39:45.742Z,45.58
2018-03-25T05:42:13.208Z,43.33
2018-03-25T05:44:40.676Z,48.83
2018-03-25T05:47:08.115Z,50.65
2018-03-25T05:49:35.561Z,53.90
2018-03-25T05:52:03.022Z,62.58
2018-03-25T05:54:30.491Z,58.92
2018-03-25T05:56:57.957Z,48.03
2018-03-25T05:59:25.425Z,50.58
2018-03-25T06:01:53.306Z,51.75
2018-03-25T06:04:20.881Z,53.05
2018-03-25T06:06:48.318Z,50.88
2018-03-25T06:09:15.847Z,49.20
2018-03-25T06:11:43.299Z,49.10
2018-03-25T06:14:10.733Z,46.92
2018-03-25T06:16:38.208Z,51.78
2018-03-25T06:19:05.649Z,49.50
2018-03-25T06:21:33.293Z,44.10
2018-03-25T06:24:00.762Z,50.75
2018-03-25T06:26:28.211Z,45.05
2018-03-25T06:28:55.860Z,44.63
2018-03-25T06:31:24.026Z,54.13
2018-03-25T06:33:51.472Z,53.87
2018-03-25T06:36:18.922Z,41.70
2018-03-25T06:38:46.366Z,50.25
2018-03-25T06:41:13.818Z,50.12
2018-03-25T06:43:41.261Z,52.42
2018-03-25T06:46:08.789Z,52.38
2018-03-25T06:48:36.317Z,48.83
2018-03-25T06:51:03.771Z,53.58
2018-03-25T06:53:31.290Z,52.62
2018-03-25T06:55:58.897Z,54.97
2018-03-25T06:58:26.458Z,45.45
2018-03-25T07:00:53.894Z,38.00
2018-03-25T07:03:21.350Z,46.63
2018-03-25T07:05:48.802Z,51.28
2018-03-25T07:08:16.255Z,48.87
2018-03-25T07:10:43.704Z,42.62
2018-03-25T07:13:11.171Z,47.13
2018-03-25T07:15:38.624Z,51.28
2018-03-25T07:18:06.077Z,46.95
2018-03-25T07:20:33.769Z,51.10
2018-03-25T07:23:01.436Z,49.25
2018-03-25T07:25:28.873Z,49.10
2018-03-25T07:27:56.341Z,49.47
2018-03-25T07:30:23.787Z,54.53
2018-03-25T07:32:51.219Z,47.92
2018-03-25T07:35:18.737Z,49.97
2018-03-25T07:37:46.239Z,53.42
2018-03-25T07:40:13.634Z,52.58
2018-03-25T07:42:41.070Z,51.75
2018-03-25T07:45:08.557Z,57.90
2018-03-25T07:47:36.008Z,54.13
2018-03-25T07:50:03.480Z,52.05
2018-03-25T07:52:30.950Z,60.03
2018-03-25T07:54:58.766Z,62.88
2018-03-25T07:57:26.221Z,52.83
2018-03-25T07:59:53.682Z,50.92
2018-03-25T08:02:21.139Z,58.87
2018-03-25T08:04:48.591Z,62.85
2018-03-25T08:07:16.078Z,62.38
2018-03-25T08:09:43.525Z,58.55
2018-03-25T08:12:11.018Z,58.83
2018-03-25T08:14:38.476Z,54.97
2018-03-25T08:17:06.737Z,56.80
2018-03-25T08:19:34.202Z,56.60
2018-03-25T08:22:01.743Z,61.40
2018-03-25T08:24:29.212Z,62.62
2018-03-25T08:26:56.727Z,62.70
2018-03-25T08:29:24.186Z,59.78
2018-03-25T08:31:51.642Z,67.15
2018-03-25T08:34:19.134Z,59.22
2018-03-25T08:36:46.585Z,52.03
2018-03-25T08:39:14.046Z,57.70
2018-03-25T08:41:41.586Z,64.55
2018-03-25T08:44:09.058Z,59.08
2018-03-25T08:46:36.795Z,52.28
2018-03-25T08:49:04.350Z,53.35
2018-03-25T08:51:31.813Z,56.33
2018-03-25T08:53:59.343Z,54.72
2018-03-25T08:56:26.819Z,58.15
2018-03-25T08:58:54.259Z,59.15
2018-03-25T09:01:21.696Z,57.00
2018-03-25T09:03:49.168Z,56.30
2018-03-25T09:06:16.616Z,56.67
2018-03-25T09:08:44.064Z,56.30
2018-03-25T09:11:11.642Z,56.70
2018-03-25T09:13:39.180Z,55.43
2018-03-25T09:16:06.763Z,55.83
2018-03-25T09:18:34.223Z,54.63
2018-03-25T09:21:01.702Z,55.23
2018-03-25T09:23:29.238Z,60.00
2018-03-25T09:25:56.693Z,58.73
2018-03-25T09:28:24.161Z,57.70
2018-03-25T09:30:51.607Z,55.00
2018-03-25T09:33:19.046Z,53.97
2018-03-25T09:35:46.507Z,54.57
2018-03-25T09:38:13.942Z,50.87
2018-03-25T09:40:41.392Z,54.03
2018-03-25T09:43:08.850Z,54.87
2018-03-25T09:45:36.310Z,52.40
2018-03-25T09:48:03.748Z,56.00
2018-03-25T09:50:31.253Z,51.43
2018-03-25T09:52:58.711Z,51.57
2018-03-25T09:55:26.406Z,50.13
2018-03-25T09:57:53.846Z,50.43
2018-03-25T10:00:26.840Z,51.93
2018-03-25T10:02:59.166Z,56.10
2018-03-25T10:05:26.642Z,53.67
2018-03-25T10:07:54.101Z,50.57
2018-03-25T10:10:21.563Z,44.60
2018-03-25T10:12:49.020Z,48.93
2018-03-25T10:15:16.474Z,45.20
2018-03-25T10:17:43.927Z,48.70
2018-03-25T10:20:11.416Z,47.77
2018-03-25T10:22:38.884Z,52.83
2018-03-25T10:25:06.372Z,51.40
2018-03-25T10:27:33.858Z,49.67
2018-03-25T10:30:01.313Z,49.20
2018-03-25T10:32:28.756Z,55.87
2018-03-25T10:34:57.062Z,58.60
2018-03-25T10:37:25.656Z,51.73
2018-03-25T10:39:53.225Z,51.97
2018-03-25T10:42:20.666Z,51.70
2018-03-25T10:44:48.105Z,62.37
2018-03-25T10:47:15.571Z,53.30
2018-03-25T10:49:43.032Z,48.77
2018-03-25T10:52:10.473Z,58.87
2018-03-25T10:54:37.935Z,48.33
2018-03-25T10:57:05.402Z,45.63
2018-03-25T10:59:32.869Z,51.07
2018-03-25T11:02:00.338Z,46.63
2018-03-25T11:04:27.903Z,57.87
2018-03-25T11:06:55.338Z,61.50
2018-03-25T11:09:22.796Z,50.07
2018-03-25T11:11:50.257Z,49.97
2018-03-25T11:14:17.716Z,54.63
2018-03-25T11:16:45.175Z,44.93
2018-03-25T11:19:12.622Z,58.60
2018-03-25T11:21:40.076Z,55.73
2018-03-25T11:24:07.527Z,52.77
2018-03-25T11:26:34.990Z,47.17
2018-03-25T11:29:02.593Z,43.87
2018-03-25T11:31:30.054Z,50.50
2018-03-25T11:33:57.541Z,49.80
2018-03-25T11:36:25.258Z,51.63
2018-03-25T11:38:52.711Z,41.80
2018-03-25T11:41:20.191Z,47.87
2018-03-25T11:43:47.696Z,51.80
2018-03-25T11:46:15.169Z,48.40
2018-03-25T11:48:42.790Z,50.20
2018-03-25T11:51:10.274Z,44.53
2018-03-25T11:53:37.716Z,43.60
2018-03-25T11:56:05.574Z,44.70
2018-03-25T11:58:33.076Z,41.83
2018-03-25T12:01:00.547Z,44.17
2018-03-25T12:03:28.034Z,41.87
2018-03-25T12:05:55.484Z,39.00
2018-03-25T12:08:22.963Z,36.10
2018-03-25T12:10:50.437Z,39.90
2018-03-25T12:13:17.988Z,37.70
2018-03-25T12:15:45.437Z,37.33
2018-03-25T12:18:12.930Z,36.00
2018-03-25T12:20:40.419Z,38.27
2018-03-25T12:23:07.874Z,35.43
2018-03-25T12:25:35.335Z,31.90
2018-03-25T12:28:02.796Z,30.83
2018-03-25T12:30:31.152Z,33.93
2018-03-25T12:33:00.467Z,30.03
2018-03-25T12:35:30.432Z,29.00
2018-03-25T12:37:57.887Z,26.37
2018-03-25T12:40:25.330Z,24.80
2018-03-25T12:42:52.785Z,26.87
2018-03-25T12:45:20.230Z,29.27
2018-03-25T12:47:47.722Z,29.43
2018-03-25T12:50:15.165Z,27.47
2018-03-25T12:52:42.711Z,27.03
2018-03-25T12:55:10.448Z,27.07
2018-03-25T12:57:38.044Z,22.33
2018-03-25T13:00:05.513Z,22.93
2018-03-25T13:02:32.994Z,18.40
2018-03-25T13:05:00.468Z,18.93
2018-03-25T13:07:27.918Z,18.30
2018-03-25T13:09:55.373Z,20.37
2018-03-25T13:12:22.838Z,16.97
2018-03-25T13:14:50.300Z,16.03
2018-03-25T13:17:17.765Z,16.63
2018-03-25T13:19:45.215Z,16.17
2018-03-25T13:22:12.673Z,17.60
2018-03-25T13:24:40.156Z,15.27
2018-03-25T13:27:10.583Z,16.13
2018-03-25T13:29:38.064Z,14.73
2018-03-25T13:32:05.538Z,16.00
2018-03-25T13:34:33.013Z,15.97
2018-03-25T13:37:00.481Z,19.63
2018-03-25T13:39:27.934Z,17.70
2018-03-25T13:41:55.381Z,16.93
2018-03-25T13:44:22.847Z,17.83
2018-03-25T13:46:50.297Z,17.73
2018-03-25T13:49:17.743Z,21.40
2018-03-25T13:51:45.210Z,16.70
2018-03-25T13:54:12.648Z,19.80
2018-03-25T13:56:40.118Z,21.67
2018-03-25T13:59:07.563Z,20.83
2018-03-25T14:01:35.042Z,18.43
2018-03-25T14:04:02.494Z,18.37
2018-03-25T14:06:29.987Z,20.80
2018-03-25T14:08:57.418Z,20.80
2018-03-25T14:11:26.075Z,19.57
2018-03-25T14:13:53.524Z,21.57
2018-03-25T14:16:20.972Z,21.40
2018-03-25T14:18:48.435Z,21.90
2018-03-25T14:21:16.174Z,18.60
2018-03-25T14:23:43.633Z,18.40
2018-03-25T14:26:15.694Z,21.00
2018-03-25T14:28:43.214Z,20.70
2018-03-25T14:31:10.695Z,21.67
2018-03-25T14:33:38.152Z,19.10
2018-03-25T14:36:05.629Z,21.60
2018-03-25T14:38:33.111Z,21.70
2018-03-25T14:41:00.657Z,21.73
2018-03-25T14:43:28.114Z,22.63
2018-03-25T14:45:55.556Z,20.40
2018-03-25T14:48:23.010Z,22.13
2018-03-25T14:50:50.461Z,26.87
2018-03-25T14:53:17.927Z,18.50
2018-03-25T14:55:45.358Z,18.43
2018-03-25T14:58:12.808Z,17.93
2018-03-25T15:00:40.334Z,21.33
2018-03-25T15:03:07.791Z,21.60
2018-03-25T15:05:35.269Z,17.73
2018-03-25T15:08:02.751Z,21.20
2018-03-25T15:10:30.190Z,20.00
2018-03-25T15:12:57.643Z,21.80
2018-03-25T15:15:25.142Z,22.10
2018-03-25T15:17:53.060Z,23.10
2018-03-25T15:20:20.501Z,22.93
2018-03-25T15:22:47.960Z,21.70
2018-03-25T15:25:17.471Z,25.83
2018-03-25T15:27:56.631Z,22.63
2018-03-25T15:30:25.175Z,25.63
2018-03-25T15:32:56.429Z,24.67
2018-03-25T15:35:25.530Z,26.03
2018-03-25T15:37:54.177Z,23.33
2018-03-25T15:40:24.367Z,25.63
2018-03-25T15:42:54.013Z,24.30
2018-03-25T15:45:24.312Z,26.43
2018-03-25T15:47:53.316Z,22.97
2018-03-25T15:50:22.501Z,26.47
2018-03-25T15:52:51.119Z,28.23
2018-03-25T15:55:19.168Z,27.00
2018-03-25T15:57:47.555Z,26.63
2018-03-25T16:00:15.883Z,25.60
2018-03-25T16:02:43.869Z,26.17
2018-03-25T16:05:12.415Z,30.20
2018-03-25T16:07:41.364Z,30.37
2018-03-25T16:10:23.126Z,27.47
2018-03-25T16:12:51.867Z,28.73
2018-03-25T16:15:22.600Z,29.73
2018-03-25T16:17:53.077Z,32.03
2018-03-25T16:20:21.768Z,36.10
2018-03-25T16:22:51.072Z,31.10
2018-03-25T16:25:20.121Z,33.37
2018-03-25T16:27:48.016Z,27.87
2018-03-25T16:30:15.613Z,28.20
2018-03-25T16:32:43.324Z,32.00
2018-03-25T16:35:15.514Z,32.90
2018-03-25T16:37:43.263Z,31.10
2018-03-25T16:40:10.967Z,29.77
2018-03-25T16:42:38.820Z,29.83
2018-03-25T16:45:06.559Z,32.20
2018-03-25T16:47:34.845Z,25.47
2018-03-25T16:50:09.542Z,25.90
2018-03-25T16:52:37.305Z,26.57
2018-03-25T16:55:05.229Z,27.63
2018-03-25T16:57:32.898Z,29.07
2018-03-25T17:00:00.450Z,29.67
2018-03-25T17:02:28.830Z,30.70
2018-03-25T17:04:56.382Z,30.83
2018-03-25T17:07:24.158Z,37.43
2018-03-25T17:09:53.427Z,30.97
2018-03-25T17:12:21.001Z,32.00
2018-03-25T17:14:48.453Z,31.70
2018-03-25T17:17:16.434Z,27.67
2018-03-25T17:19:44.290Z,28.23
2018-03-25T17:22:13.096Z,34.00
2018-03-25T17:24:42.279Z,25.53
2018-03-25T17:27:10.978Z,28.57
2018-03-25T17:29:39.971Z,29.17
2018-03-25T17:32:08.861Z,29.00
2018-03-25T17:34:37.432Z,30.70
2018-03-25T17:37:05.192Z,32.13
2018-03-25T17:39:32.836Z,29.83
2018-03-25T17:42:00.614Z,32.47
2018-03-25T17:44:28.179Z,33.10
2018-03-25T17:46:55.853Z,28.60
2018-03-25T17:49:23.560Z,34.10
2018-03-25T17:51:51.135Z,33.60
2018-03-25T17:54:18.762Z,32.73
2018-03-25T17:56:46.518Z,30.70
2018-03-25T17:59:22.511Z,34.23
2018-03-25T18:01:53.165Z,32.90
2018-03-25T18:04:20.625Z,34.50
2018-03-25T18:06:48.321Z,36.13
2018-03-25T18:09:15.776Z,39.27
2018-03-25T18:11:43.222Z,31.90
2018-03-25T18:14:10.733Z,40.33
2018-03-25T18:16:38.184Z,32.77
2018-03-25T18:19:05.746Z,34.77
2018-03-25T18:21:33.197Z,37.03
2018-03-25T18:24:00.650Z,31.70
2018-03-25T18:26:28.133Z,38.70
2018-03-25T18:28:55.567Z,40.70
2018-03-25T18:31:23.007Z,42.70
2018-03-25T18:33:50.454Z,36.20
2018-03-25T18:36:18.964Z,33.90
2018-03-25T18:38:46.482Z,38.93
2018-03-25T18:41:13.919Z,38.17
2018-03-25T18:43:41.589Z,38.40
2018-03-25T18:46:09.044Z,40.80
2018-03-25T18:48:36.486Z,36.90
2018-03-25T18:51:03.916Z,40.33
2018-03-25T18:53:31.406Z,38.27
2018-03-25T18:56:00.357Z,38.20
2018-03-25T18:58:27.838Z,40.63
2018-03-25T19:00:55.302Z,38.00
2018-03-25T19:03:22.731Z,39.63
2018-03-25T19:05:50.190Z,43.47
2018-03-25T19:08:30.094Z,42.77
2018-03-25T19:11:14.321Z,45.13
2018-03-25T19:13:47.913Z,41.53
2018-03-25T19:16:15.806Z,42.53
2018-03-25T19:18:43.257Z,39.50
2018-03-25T19:21:10.713Z,40.33
2018-03-25T19:23:44.239Z,37.00
2018-03-25T19:26:11.899Z,38.10
2018-03-25T19:28:39.374Z,40.60
2018-03-25T19:31:06.826Z,36.70
2018-03-25T19:33:34.348Z,47.10
2018-03-25T19:36:02.113Z,40.00
2018-03-25T19:38:29.550Z,42.37
2018-03-25T19:40:57.010Z,37.67
2018-03-25T19:43:24.449Z,36.70
2018-03-25T19:45:51.890Z,36.93
2018-03-25T19:48:19.341Z,39.97
2018-03-25T19:50:46.797Z,46.30
2018-03-25T19:53:14.260Z,44.57
2018-03-25T19:55:41.713Z,39.70
2018-03-25T19:58:09.201Z,40.23
2018-03-25T20:00:36.644Z,39.90
2018-03-25T20:03:04.150Z,41.40
2018-03-25T20:05:31.647Z,38.20
2018-03-25T20:07:59.114Z,43.00
2018-03-25T20:10:26.571Z,37.40
2018-03-25T20:12:54.011Z,40.90
2018-03-25T20:15:21.470Z,42.80
2018-03-25T20:17:48.915Z,40.27
2018-03-25T20:20:16.463Z,39.45
2018-03-25T20:22:43.950Z,45.60
2018-03-25T20:25:11.394Z,43.90
2018-03-25T20:27:38.855Z,39.00
2018-03-25T20:30:06.417Z,38.53
2018-03-25T20:32:33.874Z,36.00
2018-03-25T20:35:01.314Z,40.87
2018-03-25T20:37:28.760Z,40.43
2018-03-25T20:39:56.215Z,40.13
2018-03-25T20:42:23.677Z,41.10
2018-03-25T20:44:51.136Z,44.50
2018-03-25T20:47:18.589Z,39.07
2018-03-25T20:49:46.707Z,38.53
2018-03-25T20:52:15.613Z,39.50
2018-03-25T20:54:43.073Z,36.22
2018-03-25T20:57:10.548Z,37.57
2018-03-25T20:59:38.107Z,37.40
2018-03-25T21:02:05.730Z,39.37
2018-03-25T21:04:33.195Z,43.22
2018-03-25T21:07:00.906Z,40.87
2018-03-25T21:09:28.388Z,39.20
2018-03-25T21:11:55.835Z,41.27
2018-03-25T21:14:23.288Z,43.50
2018-03-25T21:16:50.747Z,36.97
2018-03-25T21:19:18.204Z,42.00
2018-03-25T21:21:45.694Z,39.80
2018-03-25T21:24:13.146Z,38.78
2018-03-25T21:26:40.594Z,39.63
2018-03-25T21:29:08.049Z,43.35
2018-03-25T21:31:35.541Z,34.05
2018-03-25T21:34:04.606Z,43.80
2018-03-25T21:36:32.048Z,45.77
2018-03-25T21:38:59.506Z,41.88
2018-03-25T21:41:26.975Z,44.92
2018-03-25T21:43:55.537Z,43.43
2018-03-25T21:46:23.001Z,39.87
2018-03-25T21:48:50.446Z,44.15
2018-03-25T21:51:17.904Z,48.57
2018-03-25T21:53:46.760Z,45.15
2018-03-25T21:56:14.639Z,47.30
2018-03-25T21:58:42.082Z,44.63
2018-03-25T22:01:09.713Z,48.00
2018-03-25T22:03:37.172Z,42.17
2018-03-25T22:06:04.623Z,49.75
2018-03-25T22:08:32.076Z,50.90
2018-03-25T22:10:59.573Z,48.95
2018-03-25T22:13:27.231Z,45.92
2018-03-25T22:15:56.668Z,46.35
2018-03-25T22:18:30.844Z,50.75
2018-03-25T22:20:58.313Z,46.53
2018-03-25T22:23:25.774Z,50.72
2018-03-25T22:25:53.238Z,48.00
2018-03-25T22:28:20.880Z,49.60
2018-03-25T22:30:48.345Z,48.85
2018-03-25T22:33:15.801Z,44.88
2018-03-25T22:35:43.370Z,50.05
2018-03-25T22:38:10.838Z,48.80
2018-03-25T22:40:38.361Z,49.35
2018-03-25T22:43:05.819Z,49.40
2018-03-25T22:45:33.280Z,54.03
2018-03-25T22:48:00.720Z,46.35
2018-03-25T22:50:28.184Z,49.63
2018-03-25T22:52:55.659Z,47.55
2018-03-25T22:55:24.266Z,50.28
2018-03-25T22:57:55.029Z,58.08
2018-03-25T23:00:22.495Z,43.63
2018-03-25T23:02:50.307Z,46.08
2018-03-25T23:05:17.757Z,49.92
2018-03-25T23:07:45.204Z,48.22
2018-03-25T23:10:12.689Z,46.97
2018-03-25T23:12:40.139Z,52.92
2018-03-25T23:15:07.599Z,48.08
2018-03-25T23:17:41.139Z,51.17
2018-03-25T23:20:08.646Z,47.80
2018-03-25T23:22:36.466Z,43.75
2018-03-25T23:25:04.109Z,50.40
2018-03-25T23:27:31.634Z,43.03
2018-03-25T23:29:59.075Z,55.90
2018-03-25T23:32:26.618Z,54.10
2018-03-25T23:34:54.087Z,56.37
2018-03-25T23:37:21.543Z,46.60
2018-03-25T23:39:49.624Z,50.03
2018-03-25T23:42:17.073Z,53.67
2018-03-25T23:44:44.520Z,49.33
2018-03-25T23:47:12.006Z,44.90
2018-03-25T23:49:39.464Z,46.85
2018-03-25T23:52:06.918Z,46.97
2018-03-25T23:54:34.383Z,50.22
2018-03-25T23:57:02.795Z,53.17
2018-03-25T23:59:30.395Z,45.00
